NY Terminal Aviation Weather Discussion (AFD) - Prepared: 358 AM EDT SUN JUL 5 2015
HIGH PRESSURE BUILDS IN TODAY.

PATCHY FOG...WITH MVFR OR IFR VSBYS EARLY THIS MORNING WILL BURN OFF 
BY 12Z. NYC METRO THOUGH SHOULD REMAIN VFR.

THEN...FEW CLOUDS THROUGH THE DAY AND INTO TONIGHT. VFR.

LIGHT OR CALM WINDS EARLY THIS MORNING WILL BECOME W/NW AROUND 12Z 
AT 4 TO 8 KTS. THEN...EXPECT LATE MORNING AND AFTERNOON SEA BREEZES 
TO DEVELOP. WINDS LIGHTEN TONIGHT.

5 Day General Aviation Outlook:

.OUTLOOK FOR 06Z MONDAY THROUGH THURSDAY...
.SUN NIGHT...SUB VFR POSSIBLE IN FOG.
.MON...VFR WITH S WINDS 10 TO 15 KT. SUB VFR IN PATCHY FOG AT NIGHT 
POSSIBLE.
.TUE...MAINLY VFR. CHC TSTMS...ESPECIALLY WRN AREAS. S WINDS.
.TUE NIGHT...PATCHY FOG POSSIBLE.
.WED...MAINLY VFR WITH A CHC OF TSTMS. SW FLOW.
.THU...MVFR POSSIBLE WITH A CHC OF SHOWERS. FLOW BECOMING NE.


*************************************************************************************
KJFK Terminal Weather:

FTNA35 KJFK 050838 RRA
KJFK 050830Z 0509/0612 VRB03KT P6SM BKN040 BKN080
     FM051300 26006KT P6SM FEW050
     FM051500 23008KT P6SM FEW060
     FM051800 18010KT P6SM FEW060
     FM052100 18012KT P6SM FEW060
     FM060100 20006KT P6SM SKC
     FM060600 23004KT 4SM BR FEW010
KJFK Forecaster Comments Not Available at This Time
*************************************************************************************
KLGA Terminal Weather:
FTUS80 KLGA 050833 AAB
KLGA 050830Z 0509/0606 VRB03KT P6SM BKN040 BKN080
     FM051300 31005KT P6SM FEW050
     FM051700 22007KT P6SM FEW060
     FM051900 18009KT P6SM FEW060
     FM060100 20006KT P6SM SKC
KLGA Forecaster Comments Not Available at This Time
*************************************************************************************
KEWR Terminal Weather:
FTUS31 KEWR 050833 AAA
KEWR 050830Z 0509/0612 VRB03KT P6SM BKN040 BKN080
     FM051300 30006KT P6SM FEW050
     FM051600 23007KT P6SM FEW060
     FM051800 20008KT P6SM FEW060
     FM052100 16010KT P6SM FEW060
     FM060100 21005KT P6SM SKC
     FM060600 23004KT 4SM BR FEW010
KEWR Forecaster Comments Not Available at This Time
*************************************************************************************
KTEB Terminal Weather:
FTUS80 KTEB 050833 AAB
KTEB 050830Z 0509/0606 VRB02KT P6SM BKN040 BKN080
     FM051300 30004KT P6SM FEW050
     FM051600 24006KT P6SM FEW060
     FM051900 20007KT P6SM FEW060
     FM052100 17009KT P6SM FEW060
     FM060100 21004KT P6SM SKC
KTEB Forecaster Comments Not Available at This Time
*************************************************************************************
KHPN Terminal Weather:
FTUS41 KHPN 050833 AAA
KHPN 050830Z 0509/0606 VRB02KT 6SM BR SCT040 BKN080
      TEMPO 0509/0511 4SM BR
     FM051300 30005KT P6SM FEW050
     FM051600 24006KT P6SM FEW060
     FM051900 18008KT P6SM FEW060
     FM060100 21004KT P6SM SKC AMD NOT SKED
KHPN Forecaster Comments Not Available at This Time
*************************************************************************************
KISP Terminal Weather:
FTUS51 KISP 050833 AAA
KISP 050830Z 0509/0606 VRB02KT 5SM BR SCT040 BKN080
      TEMPO 0509/0511 2SM BR
     FM051300 30005KT P6SM FEW050
     FM051500 23007KT P6SM FEW060
     FM051800 21009KT P6SM FEW060
     FM060100 22005KT P6SM SKC
KISP Forecaster Comments Not Available at This Time

*************************************************************************************
5 Day General Outlook:

.OUTLOOK FOR 06Z MONDAY THROUGH THURSDAY...
.SUN NIGHT...SUB VFR POSSIBLE IN FOG.
.MON...VFR WITH S WINDS 10 TO 15 KT. SUB VFR IN PATCHY FOG AT NIGHT 
POSSIBLE.
.TUE...MAINLY VFR. CHC TSTMS...ESPECIALLY WRN AREAS. S WINDS.
.TUE NIGHT...PATCHY FOG POSSIBLE.
.WED...MAINLY VFR WITH A CHC OF TSTMS. SW FLOW.
.THU...MVFR POSSIBLE WITH A CHC OF SHOWERS. FLOW BECOMING NE.


Click the Print Icon print icon below to print the briefing sheet